Latest Weather Observations for Sydney Harbour

IDN60801

Issued at 9:52 pm EDT Saturday 23 February 2019 (issued every 10 minutes, with the page automatically refreshed every 10 minutes)

About weather observations | Map of weather stations | Latest weather observations for NSW | Other Formats
Station Details ID: 066196 Name: WEDDING CAKE WEST Lat: -33.84 Lon: 151.26 Height: 6.0 m
Data from the previous 72 hours. | See also: Recent months at Sydney Harbour
Date/Time
EDT
Temp
°C
App
Temp
°C
Dew
Point
°C
Rel
Hum
%
Delta-T
°C
Wind Press
QNH
hPa
Press
MSL
hPa
Rain since
9am
mm
Dir  Spd
km/h
Gust
km/h
Spd
kts
Gust
kts
23/09:30pm 20.1 - - - - SSW 22 30 12 16 - - -
23/09:00pm 20.1 - - - - SSW 26 32 14 17 - - -
23/08:30pm 19.5 - - - - SW 32 39 17 21 - - -
23/08:00pm 19.6 - - - - SSW 39 46 21 25 - - -
23/07:30pm 20.2 - - - - SSW 32 44 17 24 - - -
23/07:18pm 19.7 - - - - SSW 28 48 15 26 - - -
23/07:00pm 20.3 - - - - SW 28 33 15 18 - - -
23/06:30pm 20.1 - - - - SSW 28 37 15 20 - - -
23/06:00pm 20.0 - - - - S 35 56 19 30 - - -
23/05:44pm 19.8 - - - - S 33 56 18 30 - - -
23/05:30pm 19.4 - - - - SSW 33 48 18 26 - - -
23/05:25pm 19.1 - - - - SSW 30 48 16 26 - - -
23/05:00pm 19.6 - - - - SSW 39 50 21 27 - - -
23/04:30pm 19.5 - - - - SSW 35 44 19 24 - - -
23/04:00pm 19.8 - - - - SSW 26 35 14 19 - - -
23/03:30pm 19.5 - - - - SW 37 46 20 25 - - -
23/03:00pm 19.6 - - - - SW 35 44 19 24 - - -
23/02:30pm 19.6 - - - - SW 32 43 17 23 - - -
23/02:00pm 19.8 - - - - SW 35 43 19 23 - - -
23/01:30pm 19.7 - - - - SW 35 46 19 25 - - -
23/01:00pm 20.3 - - - - SSW 26 32 14 17 - - -
23/12:30pm 20.8 - - - - WSW 28 35 15 19 - - -
23/12:00pm 20.3 - - - - SW 33 41 18 22 - - -
23/11:30am 20.0 - - - - SW 30 35 16 19 - - -
23/11:00am 19.2 - - - - SW 32 39 17 21 - - -
23/10:30am 19.3 - - - - SW 33 43 18 23 - - -
23/10:00am 19.3 - - - - SW 33 43 18 23 - - -
23/09:30am 19.2 - - - - SW 35 43 19 23 - - -
23/09:00am 19.4 - - - - SW 37 44 20 24 - - -
23/08:30am 19.9 - - - - SSW 32 37 17 20 - - -
23/08:00am 20.1 - - - - SSW 35 43 19 23 - - -
23/07:30am 19.7 - - - - SSW 35 46 19 25 - - -
23/07:00am 19.8 - - - - SSW 30 39 16 21 - - -
23/06:30am 19.8 - - - - SSW 32 39 17 21 - - -
23/06:00am 19.8 - - - - SSW 32 41 17 22 - - -
23/05:30am 20.2 - - - - SSW 33 41 18 22 - - -
23/05:00am 19.9 - - - - SSW 30 39 16 21 - - -
23/04:30am 19.8 - - - - SSW 32 41 17 22 - - -
23/04:00am 20.0 - - - - SSW 28 35 15 19 - - -
23/03:30am 19.9 - - - - SSW 28 33 15 18 - - -
23/03:00am 20.1 - - - - SSW 24 32 13 17 - - -
23/02:30am 20.0 - - - - SSW 26 30 14 16 - - -
23/02:00am 19.4 - - - - SSW 17 22 9 12 - - -
23/01:30am 20.2 - - - - SSW 26 30 14 16 - - -
23/01:00am 19.9 - - - - SSW 26 33 14 18 - - -
23/12:30am 19.4 - - - - SSW 13 20 7 11 - - -
23/12:00am 20.0 - - - - SW 24 30 13 16 - - -
 
Date/Time
EDT
Temp
°C
App
Temp
°C
Dew
Point
°C
Rel
Hum
%
Delta-T
°C
Wind Press
QNH
hPa
Press
MSL
hPa
Rain since
9am
mm
Dir  Spd
km/h
Gust
km/h
Spd
kts
Gust
kts
22/11:30pm 20.3 - - - - SW 28 33 15 18 - - -
22/11:00pm 20.1 - - - - SW 26 32 14 17 - - -
22/10:30pm 20.0 - - - - SSW 24 30 13 16 - - -
22/10:00pm 20.0 - - - - SW 24 30 13 16 - - -
22/09:30pm 20.1 - - - - SW 24 28 13 15 - - -
22/09:00pm 20.4 - - - - SW 26 30 14 16 - - -
22/08:30pm 20.2 - - - - SSW 22 28 12 15 - - -
22/08:00pm 20.2 - - - - SSW 26 35 14 19 - - -
22/07:30pm 19.7 - - - - SW 32 37 17 20 - - -
22/07:00pm 19.5 - - - - SSW 28 33 15 18 - - -
22/06:30pm 19.1 - - - - SSW 30 37 16 20 - - -
22/06:00pm 19.6 - - - - SSW 33 41 18 22 - - -
22/05:30pm 20.1 - - - - SSW 39 44 21 24 - - -
22/05:00pm 19.7 - - - - SSW 26 35 14 19 - - -
22/04:30pm 19.7 - - - - SSW 30 35 16 19 - - -
22/04:00pm 19.1 - - - - SSW 41 52 22 28 - - -
22/03:30pm 19.9 - - - - SSW 35 43 19 23 - - -
22/03:00pm 19.5 - - - - S 30 41 16 22 - - -
22/02:30pm 20.8 - - - - SSW 32 43 17 23 - - -
22/02:00pm 20.3 - - - - SSW 26 35 14 19 - - -
22/01:30pm 19.1 - - - - SSW 33 43 18 23 - - -
22/01:00pm 18.9 - - - - SSW 28 35 15 19 - - -
22/12:30pm 20.5 - - - - SSW 43 54 23 29 - - -
22/12:00pm 20.5 - - - - SSW 41 50 22 27 - - -
22/11:49am 20.4 - - - - SSW 37 56 20 30 - - -
22/11:30am 20.6 - - - - SSW 32 43 17 23 - - -
22/11:00am 20.6 - - - - SW 33 46 18 25 - - -
22/10:30am 21.1 - - - - SSW 30 37 16 20 - - -
22/10:00am 20.8 - - - - SSW 30 43 16 23 - - -
22/09:30am 20.4 - - - - SSW 32 37 17 20 - - -
22/09:00am 20.5 - - - - SW 26 33 14 18 - - -
22/08:30am 20.1 - - - - SW 24 30 13 16 - - -
22/08:00am 20.9 - - - - SSW 30 35 16 19 - - -
22/07:30am 20.2 - - - - SSW 20 26 11 14 - - -
22/07:00am 20.0 - - - - SW 28 35 15 19 - - -
22/06:30am 20.1 - - - - WSW 24 30 13 16 - - -
22/06:00am 20.3 - - - - SW 22 28 12 15 - - -
22/05:30am 20.3 - - - - SSW 24 30 13 16 - - -
22/05:00am 22.1 - - - - SSE 24 30 13 16 - - -
22/04:30am 22.1 - - - - SSE 28 39 15 21 - - -
22/04:00am 21.8 - - - - SSE 20 30 11 16 - - -
22/03:30am 21.8 - - - - SSE 24 35 13 19 - - -
22/03:00am 22.4 - - - - SE 19 26 10 14 - - -
22/02:30am 22.4 - - - - SE 17 24 9 13 - - -
22/02:00am 22.6 - - - - SE 22 30 12 16 - - -
22/01:30am 22.4 - - - - SE 20 28 11 15 - - -
22/01:00am 22.6 - - - - SE 22 30 12 16 - - -
22/12:30am 22.6 - - - - SE 20 28 11 15 - - -
22/12:00am 22.6 - - - - SE 26 32 14 17 - - -
 
Date/Time
EDT
Temp
°C
App
Temp
°C
Dew
Point
°C
Rel
Hum
%
Delta-T
°C
Wind Press
QNH
hPa
Press
MSL
hPa
Rain since
9am
mm
Dir  Spd
km/h
Gust
km/h
Spd
kts
Gust
kts
21/11:30pm 22.3 - - - - SSE 22 32 12 17 - - -
21/11:00pm 21.7 - - - - SSE 20 32 11 17 - - -
21/10:30pm 20.0 - - - - WSW 19 20 10 11 - - -
21/10:00pm 19.8 - - - - SW 24 28 13 15 - - -
21/09:30pm 20.1 - - - - SW 24 30 13 16 - - -
21/09:00pm 20.5 - - - - SSW 22 28 12 15 - - -
21/08:30pm 20.8 - - - - SSW 20 26 11 14 - - -
21/08:00pm 20.9 - - - - SSW 20 26 11 14 - - -
21/07:30pm 21.0 - - - - SSW 15 20 8 11 - - -
21/07:00pm 20.8 - - - - SSW 20 24 11 13 - - -
21/06:30pm 20.9 - - - - S 22 28 12 15 - - -
21/06:00pm 20.9 - - - - SSW 20 24 11 13 - - -
21/05:30pm 20.5 - - - - SSW 19 22 10 12 - - -
21/05:00pm 20.9 - - - - S 28 32 15 17 - - -
21/04:30pm 21.4 - - - - S 26 32 14 17 - - -
21/04:00pm 21.4 - - - - SSW 28 33 15 18 - - -
21/03:30pm 21.3 - - - - S 26 32 14 17 - - -
21/03:00pm 21.6 - - - - S 24 28 13 15 - - -
21/02:30pm 21.5 - - - - S 26 33 14 18 - - -
21/02:00pm 21.6 - - - - SSW 26 33 14 18 - - -
21/01:30pm 21.9 - - - - S 19 22 10 12 - - -
21/01:00pm 21.4 - - - - SSW 22 28 12 15 - - -
21/12:30pm 20.9 - - - - S 19 26 10 14 - - -
21/12:00pm 20.5 - - - - S 24 30 13 16 - - -
21/11:30am 21.0 - - - - SSW 24 30 13 16 - - -
21/11:00am 21.1 - - - - S 20 26 11 14 - - -
21/10:30am 21.2 - - - - SSW 22 28 12 15 - - -
21/10:00am 21.2 - - - - SSW 20 24 11 13 - - -
21/09:30am 21.3 - - - - SSW 22 26 12 14 - - -
21/09:00am 21.7 - - - - SSW 9 15 5 8 - - -
21/08:30am 21.4 - - - - SW 19 24 10 13 - - -
21/08:00am 21.5 - - - - SSW 19 22 10 12 - - -
21/07:30am 21.4 - - - - SW 20 24 11 13 - - -
21/07:00am 21.4 - - - - SSW 20 24 11 13 - - -
21/06:30am 23.0 - - - - SE 15 22 8 12 - - -
21/06:00am 23.1 - - - - ESE 24 33 13 18 - - -
21/05:30am 22.9 - - - - ESE 24 32 13 17 - - -
21/05:00am 22.4 - - - - SE 13 17 7 9 - - -
21/04:30am 22.4 - - - - ESE 17 20 9 11 - - -
21/04:00am 22.5 - - - - SE 20 26 11 14 - - -
21/03:30am 22.3 - - - - SE 24 32 13 17 - - -
21/03:00am 22.3 - - - - SE 28 35 15 19 - - -
21/02:30am 22.5 - - - - SE 28 37 15 20 - - -
21/02:00am 22.6 - - - - SE 26 35 14 19 - - -
21/01:30am 22.6 - - - - SE 20 30 11 16 - - -
21/01:00am 22.5 - - - - SSE 19 24 10 13 - - -
21/12:30am 22.4 - - - - SE 19 26 10 14 - - -
21/12:00am 22.2 - - - - SE 20 28 11 15 - - -
 
Date/Time
EDT
Temp
°C
App
Temp
°C
Dew
Point
°C
Rel
Hum
%
Delta-T
°C
Wind Press
QNH
hPa
Press
MSL
hPa
Rain since
9am
mm
Dir  Spd
km/h
Gust
km/h
Spd
kts
Gust
kts
20/11:30pm 22.2 - - - - SE 20 28 11 15 - - -
20/11:00pm 22.2 - - - - SE 26 33 14 18 - - -
20/10:30pm 22.2 - - - - SE 20 26 11 14 - - -
20/10:00pm 22.5 - - - - ESE 22 30 12 16 - - -

Other formats

Comma delimited format used in spreadsheet applications
http://www.bom.gov.au/fwo/IDN60801/IDN60801.95766.axf

JavaScript Object Notation format (JSON) in row-major order
http://www.bom.gov.au/fwo/IDN60801/IDN60801.95766.json

Data quality

Most of these data are generated automatically and are frequently updated. Quality checks on data are not normally performed. It is possible for incorrect values to appear. Refer to information at About Latest Weather Observations and please check the disclaimer before using these data.